Mathilde Maersk — OUJS2 — position and weather

sailwx.info

Track history (hours):
 
Tides and Currents Weather Stations Pressure Air Temp Water Temp Dewpoint Dewpoint Depression Visibility Wind Speed Wind Dir Waves Ship Positions

Mathilde Maersk

Last reported at 2016-Apr-28 21:33 UTC. Time now 2016-Apr-28 21:54 UTC.
Position N 29°53' E 122°03'.

Length 367 m; draft 12.2 m.

Type: Ship (hazmat cat B). MMSI: 220597990.

Date/timePositionNaut miles runAvg speedWind from/ knotsBaromVisibWave heightAir tempDewpointWater temp
2016-Apr-28 21:33N 29°53' E 122°03'3 3.5
2016-Apr-28 20:33N 29°55' E 122°06'1211.6
2016-Apr-28 19:33N 29°47' E 122°16'9 8.8
2016-Apr-28 18:33N 29°44' E 122°25'8 8.3
2016-Apr-28 17:32N 29°46' E 122°35'8 7.4
2016-Apr-28 16:32N 29°47' E 122°43'8 7.6
2016-Apr-28 15:32N 29°47' E 122°52'63 4.2
2016-Apr-28 00:29N 30°36' E 122°05'2 1.8
2016-Apr-27 23:15N 30°38' E 122°03'0 0.0
2016-Apr-27 07:31N 30°38' E 122°03'1 1.1
2016-Apr-27 06:33N 30°37' E 122°04'9 8.1
2016-Apr-27 05:26N 30°34' E 122°14'9 8.2
2016-Apr-27 04:19N 30°33' E 122°25'9 8.0
2016-Apr-27 03:14N 30°32' E 122°35'1 1.3
2016-Apr-27 02:06N 30°31' E 122°36'1 1.8
2016-Apr-27 01:29N 30°30' E 122°35'6 1.2
2016-Apr-26 20:07N 30°28' E 122°42'0 0.1
2016-Apr-26 19:19N 30°28' E 122°42'0 0.1
2016-Apr-26 14:28N 30°28' E 122°42'11 9.3
2016-Apr-26 13:18N 30°31' E 122°30'1 1.7
2016-Apr-26 12:32N 30°33' E 122°30'5 4.9
2016-Apr-26 11:33N 30°33' E 122°36'3 2.5
2016-Apr-26 10:29N 30°31' E 122°33'8 8.1
2016-Apr-26 09:28N 30°32' E 122°43'910.3
2016-Apr-26 08:33N 30°35' E 122°53'  
Track history (hours):
 
Tides and Currents Weather Stations Pressure Air Temp Water Temp Dewpoint Dewpoint Depression Visibility Wind Speed Wind Dir Waves Ship Positions

Mathilde Maersk

Last reported at 2016-Apr-28 21:33 UTC. Time now 2016-Apr-28 21:54 UTC.
Position N 29°53' E 122°03'.

Length 367 m; draft 12.2 m.

Type: Ship (hazmat cat B). MMSI: 220597990.

Date/timePositionNaut miles runAvg speedWind from/ knotsBaromVisibWave heightAir tempDewpointWater temp
2016-Apr-28 21:33N 29°53' E 122°03'3 3.5
2016-Apr-28 20:33N 29°55' E 122°06'1211.6
2016-Apr-28 19:33N 29°47' E 122°16'9 8.8
2016-Apr-28 18:33N 29°44' E 122°25'8 8.3
2016-Apr-28 17:32N 29°46' E 122°35'8 7.4
2016-Apr-28 16:32N 29°47' E 122°43'8 7.6
2016-Apr-28 15:32N 29°47' E 122°52'63 4.2
2016-Apr-28 00:29N 30°36' E 122°05'2 1.8
2016-Apr-27 23:15N 30°38' E 122°03'0 0.0
2016-Apr-27 07:31N 30°38' E 122°03'1 1.1
2016-Apr-27 06:33N 30°37' E 122°04'9 8.1
2016-Apr-27 05:26N 30°34' E 122°14'9 8.2
2016-Apr-27 04:19N 30°33' E 122°25'9 8.0
2016-Apr-27 03:14N 30°32' E 122°35'1 1.3
2016-Apr-27 02:06N 30°31' E 122°36'1 1.8
2016-Apr-27 01:29N 30°30' E 122°35'6 1.2
2016-Apr-26 20:07N 30°28' E 122°42'0 0.1
2016-Apr-26 19:19N 30°28' E 122°42'0 0.1
2016-Apr-26 14:28N 30°28' E 122°42'11 9.3
2016-Apr-26 13:18N 30°31' E 122°30'1 1.7
2016-Apr-26 12:32N 30°33' E 122°30'5 4.9
2016-Apr-26 11:33N 30°33' E 122°36'3 2.5
2016-Apr-26 10:29N 30°31' E 122°33'8 8.1
2016-Apr-26 09:28N 30°32' E 122°43'910.3
2016-Apr-26 08:33N 30°35' E 122°53'  

Dump ship's entire track history